createdAt,value
2023-03-19T00:00:49.878Z,2.10
2023-03-19T00:03:17.269Z,2.10
2023-03-19T00:05:52.351Z,1.90
2023-03-19T00:08:19.861Z,2.00
2023-03-19T00:10:47.170Z,2.22
2023-03-19T00:13:14.550Z,2.15
2023-03-19T00:15:41.735Z,1.95
2023-03-19T00:18:09.097Z,2.10
2023-03-19T00:20:36.917Z,2.00
2023-03-19T00:23:04.589Z,2.38
2023-03-19T00:25:32.072Z,2.50
2023-03-19T00:28:00.694Z,2.03
2023-03-19T00:30:28.197Z,2.42
2023-03-19T00:32:55.457Z,1.95
2023-03-19T00:35:22.895Z,1.70
2023-03-19T00:37:50.197Z,2.45
2023-03-19T00:40:17.382Z,2.50
2023-03-19T00:42:45.144Z,2.00
2023-03-19T00:45:13.396Z,1.90
2023-03-19T00:47:40.694Z,2.10
2023-03-19T00:50:08.588Z,2.17
2023-03-19T00:52:50.351Z,1.80
2023-03-19T00:55:18.200Z,1.70
2023-03-19T00:57:46.222Z,1.83
2023-03-19T01:02:41.089Z,1.92
2023-03-19T01:05:09.751Z,1.75
2023-03-19T01:07:39.867Z,2.08
2023-03-19T01:10:07.994Z,2.15
2023-03-19T01:12:37.708Z,1.88
2023-03-19T01:15:07.109Z,2.50
2023-03-19T01:17:34.484Z,2.28
2023-03-19T01:20:01.696Z,1.83
2023-03-19T01:22:28.831Z,1.98
2023-03-19T01:24:59.111Z,2.42
2023-03-19T01:27:26.669Z,1.88
2023-03-19T01:29:54.014Z,2.42
2023-03-19T01:32:41.582Z,1.90
2023-03-19T01:35:37.190Z,3.65
2023-03-19T01:38:06.989Z,2.40
2023-03-19T01:40:34.964Z,2.25
2023-03-19T01:43:32.978Z,1.92
2023-03-19T01:46:37.821Z,2.25
2023-03-19T01:49:24.012Z,2.42
2023-03-19T01:52:01.069Z,2.35
2023-03-19T01:54:32.709Z,2.28
2023-03-19T01:57:20.186Z,2.63
2023-03-19T02:00:09.566Z,2.00
2023-03-19T02:02:48.074Z,1.77
2023-03-19T02:05:47.765Z,1.45
2023-03-19T02:08:16.440Z,1.30
2023-03-19T02:10:44.807Z,1.20
2023-03-19T02:13:12.546Z,1.23
2023-03-19T02:15:41.346Z,1.70
2023-03-19T02:18:09.182Z,1.70
2023-03-19T02:20:45.987Z,1.90
2023-03-19T02:23:24.052Z,1.30
2023-03-19T02:26:05.743Z,1.17
2023-03-19T02:28:33.679Z,1.77
2023-03-19T02:31:01.445Z,1.13
2023-03-19T02:33:30.541Z,1.35
2023-03-19T02:35:58.045Z,1.40
2023-03-19T02:38:26.130Z,1.30
2023-03-19T02:40:59.261Z,1.23
2023-03-19T02:43:27.365Z,1.17
2023-03-19T02:45:55.226Z,1.27
2023-03-19T02:48:23.219Z,1.20
2023-03-19T02:50:51.053Z,1.40
2023-03-19T02:53:18.181Z,1.05
2023-03-19T02:55:46.057Z,1.20
2023-03-19T02:58:13.458Z,1.20
2023-03-19T03:00:41.359Z,1.30
2023-03-19T03:03:09.045Z,1.33
2023-03-19T03:05:41.063Z,1.25
2023-03-19T03:08:17.023Z,1.00
2023-03-19T03:13:34.530Z,1.15
2023-03-19T03:16:02.409Z,0.98
2023-03-19T03:18:29.849Z,1.10
2023-03-19T03:20:57.559Z,0.98
2023-03-19T03:23:24.757Z,1.75
2023-03-19T03:25:52.539Z,1.42
2023-03-19T03:28:19.788Z,0.98
2023-03-19T03:30:47.207Z,1.17
2023-03-19T03:33:14.431Z,1.42
2023-03-19T03:35:41.742Z,1.60
2023-03-19T03:38:08.997Z,1.05
2023-03-19T03:40:37.690Z,1.30
2023-03-19T03:43:07.452Z,1.10
2023-03-19T03:45:36.693Z,1.35
2023-03-19T03:48:04.142Z,1.10
2023-03-19T03:50:31.902Z,1.05
2023-03-19T03:53:04.291Z,1.38
2023-03-19T03:55:32.143Z,1.20
2023-03-19T03:57:59.551Z,1.42
2023-03-19T04:00:27.009Z,1.60
2023-03-19T04:02:54.416Z,1.40
2023-03-19T04:05:22.238Z,1.30
2023-03-19T04:07:51.836Z,1.27
2023-03-19T04:10:19.550Z,1.25
2023-03-19T04:12:48.193Z,1.40
2023-03-19T04:15:15.690Z,1.33
2023-03-19T04:17:45.537Z,1.73
2023-03-19T04:20:13.841Z,1.52
2023-03-19T04:22:41.783Z,1.48
2023-03-19T04:25:09.412Z,1.58
2023-03-19T04:27:38.072Z,1.55
2023-03-19T04:30:07.940Z,1.50
2023-03-19T04:32:35.963Z,1.55
2023-03-19T04:35:04.259Z,1.70
2023-03-19T04:37:31.666Z,1.60
2023-03-19T04:39:59.702Z,1.38
2023-03-19T04:42:27.185Z,2.17
2023-03-19T04:45:05.929Z,1.50
2023-03-19T04:47:34.324Z,1.75
2023-03-19T04:50:01.912Z,1.73
2023-03-19T04:52:32.039Z,1.67
2023-03-19T04:54:59.372Z,1.75
2023-03-19T04:57:27.154Z,1.65
2023-03-19T04:59:56.683Z,1.53
2023-03-19T05:02:24.868Z,1.52
2023-03-19T05:04:53.808Z,1.52
2023-03-19T05:07:21.271Z,1.33
2023-03-19T05:09:49.006Z,1.80
2023-03-19T05:12:16.966Z,1.70
2023-03-19T05:14:48.672Z,1.52
2023-03-19T05:17:22.011Z,1.55
2023-03-19T05:19:59.452Z,1.90
2023-03-19T05:22:27.630Z,1.50
2023-03-19T05:24:57.895Z,1.65
2023-03-19T05:27:26.221Z,1.30
2023-03-19T05:30:08.991Z,1.55
2023-03-19T05:32:56.979Z,1.40
2023-03-19T05:35:34.002Z,1.10
2023-03-19T05:38:11.946Z,1.20
2023-03-19T05:40:42.540Z,1.43
2023-03-19T05:43:24.133Z,1.70
2023-03-19T05:45:52.886Z,1.23
2023-03-19T05:48:23.912Z,1.15
2023-03-19T05:50:52.800Z,1.20
2023-03-19T05:53:21.886Z,1.48
2023-03-19T05:56:12.352Z,1.25
2023-03-19T05:58:52.636Z,1.48
2023-03-19T06:01:24.790Z,1.30
2023-03-19T06:03:54.683Z,1.40
2023-03-19T06:06:22.069Z,0.90
2023-03-19T06:08:52.394Z,1.17
2023-03-19T06:11:43.277Z,1.20
2023-03-19T06:14:28.935Z,1.23
2023-03-19T06:17:34.747Z,1.10
2023-03-19T06:20:06.052Z,1.10
2023-03-19T06:22:33.240Z,1.30
2023-03-19T06:25:00.989Z,1.47
2023-03-19T06:27:29.894Z,1.00
2023-03-19T06:30:09.310Z,1.40
2023-03-19T06:32:38.477Z,1.40
2023-03-19T06:35:10.618Z,1.27
2023-03-19T06:37:37.857Z,1.70
2023-03-19T06:40:07.766Z,1.45
2023-03-19T06:42:35.050Z,1.27
2023-03-19T06:45:04.014Z,1.30
2023-03-19T06:47:31.267Z,1.23
2023-03-19T06:49:59.014Z,2.38
2023-03-19T06:52:27.313Z,2.17
2023-03-19T06:54:54.512Z,1.23
2023-03-19T06:57:21.717Z,1.42
2023-03-19T06:59:48.898Z,1.20
2023-03-19T07:02:17.196Z,1.30
2023-03-19T07:04:44.410Z,1.50
2023-03-19T07:07:11.658Z,1.33
2023-03-19T07:09:38.999Z,1.70
2023-03-19T07:12:09.216Z,1.25
2023-03-19T07:14:36.996Z,1.30
2023-03-19T07:17:04.350Z,1.23
2023-03-19T07:19:31.533Z,1.30
2023-03-19T07:21:58.734Z,1.23
2023-03-19T07:24:26.241Z,1.38
2023-03-19T07:27:08.771Z,1.38
2023-03-19T07:29:43.589Z,1.30
2023-03-19T07:32:14.236Z,1.20
2023-03-19T07:34:41.418Z,1.17
2023-03-19T07:37:08.672Z,1.20
2023-03-19T07:39:36.493Z,1.65
2023-03-19T07:42:04.111Z,1.60
2023-03-19T07:44:32.379Z,1.98
2023-03-19T07:46:59.581Z,1.30
2023-03-19T07:49:26.768Z,1.20
2023-03-19T07:51:54.454Z,1.80
2023-03-19T07:54:23.794Z,1.10
2023-03-19T07:56:50.985Z,1.33
2023-03-19T07:59:18.141Z,1.20
2023-03-19T08:01:45.826Z,1.60
2023-03-19T08:04:13.915Z,1.48
2023-03-19T08:06:41.351Z,1.45
2023-03-19T08:09:08.624Z,1.45
2023-03-19T08:11:36.050Z,1.23
2023-03-19T08:14:03.277Z,1.45
2023-03-19T08:16:30.660Z,1.70
2023-03-19T08:18:57.972Z,1.50
2023-03-19T08:21:32.103Z,1.13
2023-03-19T08:24:18.199Z,1.30
2023-03-19T08:26:48.557Z,1.35
2023-03-19T08:29:17.872Z,1.52
2023-03-19T08:31:46.510Z,1.30
2023-03-19T08:34:17.164Z,1.33
2023-03-19T08:36:44.398Z,1.15
2023-03-19T08:39:11.666Z,1.42
2023-03-19T08:41:38.798Z,1.33
2023-03-19T08:44:06.914Z,1.45
2023-03-19T08:46:34.164Z,1.27
2023-03-19T08:49:01.308Z,1.33
2023-03-19T08:51:31.231Z,1.30
2023-03-19T08:53:58.435Z,1.45
2023-03-19T08:56:25.478Z,1.45
2023-03-19T08:58:52.841Z,1.20
2023-03-19T09:01:20.137Z,1.40
2023-03-19T09:03:47.468Z,1.30
2023-03-19T09:06:14.775Z,1.50
2023-03-19T09:08:42.564Z,1.38
2023-03-19T09:11:13.907Z,1.48
2023-03-19T09:13:41.199Z,1.40
2023-03-19T09:16:08.566Z,1.52
2023-03-19T09:18:35.834Z,1.60
2023-03-19T09:21:03.191Z,1.40
2023-03-19T09:23:30.514Z,1.48
2023-03-19T09:25:58.024Z,1.42
2023-03-19T09:28:25.852Z,2.33
2023-03-19T09:30:53.231Z,1.70
2023-03-19T09:33:20.572Z,1.63
2023-03-19T09:35:53.284Z,1.80
2023-03-19T09:38:30.888Z,1.42
2023-03-19T09:41:10.995Z,1.30
2023-03-19T09:43:58.410Z,1.40
2023-03-19T09:46:53.846Z,1.17
2023-03-19T09:49:33.053Z,2.03
2023-03-19T09:52:26.748Z,1.35
2023-03-19T09:54:54.192Z,1.65
2023-03-19T09:57:21.435Z,1.33
2023-03-19T09:59:49.280Z,1.40
2023-03-19T10:02:42.021Z,1.40
2023-03-19T10:05:32.821Z,1.52
2023-03-19T10:08:33.019Z,1.30
2023-03-19T10:11:18.339Z,1.50
2023-03-19T10:14:04.163Z,1.60
2023-03-19T10:16:31.435Z,1.33
2023-03-19T10:19:00.626Z,1.73
2023-03-19T10:21:42.570Z,1.50
2023-03-19T10:24:12.542Z,1.40
2023-03-19T10:26:39.708Z,1.23
2023-03-19T10:29:12.176Z,1.45
2023-03-19T10:32:09.421Z,1.20
2023-03-19T10:34:38.192Z,1.17
2023-03-19T10:37:26.399Z,1.63
2023-03-19T10:39:56.829Z,1.50
2023-03-19T10:45:24.244Z,1.42
2023-03-19T10:48:13.879Z,1.42
2023-03-19T10:50:53.230Z,1.07
2023-03-19T10:53:32.579Z,1.23
2023-03-19T10:56:07.732Z,1.42
2023-03-19T10:58:37.021Z,1.17
2023-03-19T11:01:06.241Z,1.00
2023-03-19T11:04:01.437Z,1.20
2023-03-19T11:06:35.798Z,1.00
2023-03-19T11:09:09.288Z,0.80
2023-03-19T11:11:50.565Z,1.05
2023-03-19T11:14:19.033Z,1.20
2023-03-19T11:16:57.719Z,1.33
2023-03-19T11:19:28.267Z,0.90
2023-03-19T11:22:04.072Z,1.10
2023-03-19T11:24:39.793Z,1.10
2023-03-19T11:27:10.108Z,1.50
2023-03-19T11:29:44.982Z,1.17
2023-03-19T11:32:37.849Z,0.80
2023-03-19T11:35:26.012Z,1.30
2023-03-19T11:38:01.015Z,1.23
2023-03-19T11:41:09.846Z,1.00
2023-03-19T11:43:42.895Z,1.10
2023-03-19T11:46:32.115Z,1.42
2023-03-19T11:49:14.383Z,1.38
2023-03-19T11:52:14.200Z,1.20
2023-03-19T11:54:56.984Z,1.00
2023-03-19T11:57:54.992Z,1.05
2023-03-19T12:00:22.785Z,1.20
2023-03-19T12:02:59.227Z,1.10
2023-03-19T12:05:52.792Z,4.32
2023-03-19T12:08:22.983Z,1.00
2023-03-19T12:11:07.074Z,1.27
2023-03-19T12:13:52.513Z,1.25
2023-03-19T12:16:46.402Z,1.15
2023-03-19T12:19:47.519Z,1.00
2023-03-19T12:22:17.653Z,0.98
2023-03-19T12:25:16.501Z,1.63
2023-03-19T12:28:02.853Z,1.27
2023-03-19T12:31:11.581Z,1.27
2023-03-19T12:34:07.788Z,1.10
2023-03-19T12:36:39.383Z,1.10
2023-03-19T12:39:11.513Z,1.42
2023-03-19T12:41:41.788Z,1.40
2023-03-19T12:44:18.783Z,1.55
2023-03-19T12:46:48.435Z,1.33
2023-03-19T12:49:19.680Z,1.98
2023-03-19T12:51:53.581Z,1.58
2023-03-19T12:54:44.180Z,1.38
2023-03-19T12:57:37.402Z,1.50
2023-03-19T13:01:07.814Z,1.30
2023-03-19T13:04:08.694Z,1.30
2023-03-19T13:06:57.213Z,1.20
2023-03-19T13:09:29.229Z,1.27
2023-03-19T13:12:07.773Z,1.38
2023-03-19T13:14:54.011Z,1.55
2023-03-19T13:17:53.502Z,1.02
2023-03-19T13:20:26.616Z,1.17
2023-03-19T13:22:59.489Z,1.30
2023-03-19T13:25:38.916Z,1.40
2023-03-19T13:28:33.718Z,1.10
2023-03-19T13:31:04.453Z,1.00
2023-03-19T13:33:33.139Z,1.20
2023-03-19T13:36:05.941Z,1.30
2023-03-19T13:38:36.019Z,1.10
2023-03-19T13:41:03.691Z,1.42
2023-03-19T13:43:31.119Z,1.52
2023-03-19T13:46:13.518Z,1.05
2023-03-19T13:48:46.989Z,1.13
2023-03-19T13:51:23.661Z,1.10
2023-03-19T13:53:55.067Z,1.30
2023-03-19T13:56:29.939Z,1.20
2023-03-19T13:59:15.662Z,2.00
2023-03-19T14:01:47.772Z,1.38
2023-03-19T14:04:23.094Z,1.33
2023-03-19T14:06:53.001Z,1.70
2023-03-19T14:09:55.278Z,2.10
2023-03-19T14:12:26.121Z,1.75
2023-03-19T14:15:01.999Z,1.63
2023-03-19T14:17:32.824Z,1.30
2023-03-19T14:20:36.529Z,1.58
2023-03-19T14:23:10.766Z,1.33
2023-03-19T14:25:57.186Z,1.13
2023-03-19T14:28:57.210Z,1.67
2023-03-19T14:31:34.477Z,1.20
2023-03-19T14:34:21.008Z,1.52
2023-03-19T14:37:12.615Z,1.40
2023-03-19T14:39:41.296Z,1.35
2023-03-19T14:42:32.340Z,1.40
2023-03-19T14:45:40.152Z,1.00
2023-03-19T14:48:38.703Z,1.05
2023-03-19T14:51:14.296Z,1.15
2023-03-19T14:57:08.902Z,1.38
2023-03-19T14:59:40.448Z,1.33
2023-03-19T15:02:29.543Z,1.50
2023-03-19T15:04:59.479Z,1.20
2023-03-19T15:07:31.197Z,1.38
2023-03-19T15:10:00.197Z,1.38
2023-03-19T15:12:50.863Z,1.30
2023-03-19T15:15:38.140Z,1.63
2023-03-19T15:18:15.095Z,1.52
2023-03-19T15:20:47.842Z,1.10
2023-03-19T15:23:26.815Z,1.25
2023-03-19T15:26:01.380Z,1.35
2023-03-19T15:31:31.677Z,1.60
2023-03-19T15:34:05.773Z,1.50
2023-03-19T15:36:35.971Z,1.33
2023-03-19T15:39:15.726Z,1.10
2023-03-19T15:41:45.159Z,1.08
2023-03-19T15:44:29.799Z,1.23
2023-03-19T15:46:57.604Z,1.30
2023-03-19T15:49:32.927Z,1.35
2023-03-19T15:52:03.032Z,1.17
2023-03-19T15:54:46.949Z,1.20
2023-03-19T16:09:39.191Z,1.30
2023-03-19T16:12:39.680Z,1.00
2023-03-19T16:19:48.561Z,1.10
2023-03-19T16:22:56.522Z,1.30
2023-03-19T16:25:38.358Z,1.52
2023-03-19T16:28:20.667Z,1.30
2023-03-19T16:31:22.521Z,1.70
2023-03-19T16:33:57.466Z,1.58
2023-03-19T16:36:27.885Z,1.50
2023-03-19T16:39:15.406Z,1.65
2023-03-19T16:41:44.405Z,1.40
2023-03-19T16:44:15.737Z,1.30
2023-03-19T16:46:43.428Z,0.82
2023-03-19T16:49:11.895Z,1.30
2023-03-19T16:51:39.397Z,1.10
2023-03-19T16:54:07.002Z,1.10
2023-03-19T16:56:34.742Z,1.20
2023-03-19T16:59:40.351Z,1.08
2023-03-19T17:02:12.547Z,1.30
2023-03-19T17:04:45.662Z,1.20
2023-03-19T17:07:13.021Z,1.15
2023-03-19T17:09:40.695Z,1.25
2023-03-19T17:12:14.606Z,1.13
2023-03-19T17:14:41.890Z,0.98
2023-03-19T17:17:19.607Z,0.90
2023-03-19T17:19:47.317Z,1.23
2023-03-19T17:22:14.657Z,1.40
2023-03-19T17:24:42.372Z,1.08
2023-03-19T17:27:10.014Z,1.15
2023-03-19T17:29:37.572Z,1.10
2023-03-19T17:32:05.055Z,1.58
2023-03-19T17:34:41.879Z,1.63
2023-03-19T17:37:12.527Z,1.85
2023-03-19T17:39:41.755Z,1.35
2023-03-19T17:42:21.150Z,1.55
2023-03-19T17:44:48.353Z,1.98
2023-03-19T17:47:19.419Z,1.92
2023-03-19T17:49:49.929Z,2.25
2023-03-19T17:52:18.161Z,1.90
2023-03-19T17:54:48.581Z,2.50
2023-03-19T17:57:17.026Z,2.47
2023-03-19T17:59:44.671Z,2.05
2023-03-19T18:02:21.469Z,2.90
2023-03-19T18:04:51.236Z,4.45
2023-03-19T18:07:19.465Z,5.45
2023-03-19T18:09:47.518Z,5.18
2023-03-19T18:12:17.900Z,4.35
2023-03-19T18:14:45.003Z,3.25
2023-03-19T18:17:19.014Z,2.10
2023-03-19T18:19:46.699Z,1.80
2023-03-19T18:22:17.898Z,1.60
2023-03-19T18:24:45.196Z,1.63
2023-03-19T18:27:13.320Z,1.38
2023-03-19T18:29:40.700Z,1.60
2023-03-19T18:32:12.610Z,2.17
2023-03-19T18:34:39.737Z,2.17
2023-03-19T18:37:12.457Z,1.50
2023-03-19T18:39:39.722Z,1.55
2023-03-19T18:42:06.975Z,2.13
2023-03-19T18:44:34.294Z,2.08
2023-03-19T18:47:01.422Z,1.98
2023-03-19T18:49:28.968Z,1.88
2023-03-19T18:52:02.689Z,1.85
2023-03-19T18:54:31.629Z,1.95
2023-03-19T18:57:02.308Z,1.88
2023-03-19T18:59:31.076Z,1.98
2023-03-19T19:02:03.328Z,2.00
2023-03-19T19:04:31.382Z,2.53
2023-03-19T19:06:58.754Z,2.67
2023-03-19T19:09:26.318Z,3.55
2023-03-19T19:12:00.758Z,3.60
2023-03-19T19:14:28.431Z,2.38
2023-03-19T19:16:57.173Z,3.08
2023-03-19T19:19:25.740Z,3.08
2023-03-19T19:21:53.261Z,3.08
2023-03-19T19:24:21.301Z,2.90
2023-03-19T19:26:51.655Z,3.00
2023-03-19T19:29:22.845Z,2.05
2023-03-19T19:31:50.028Z,2.00
2023-03-19T19:34:36.721Z,2.55
2023-03-19T19:40:28.814Z,4.32
2023-03-19T19:42:56.108Z,4.85
2023-03-19T19:45:26.509Z,3.75
2023-03-19T19:50:25.679Z,2.88
2023-03-19T19:52:52.940Z,3.00
2023-03-19T19:55:20.563Z,2.92
2023-03-19T19:57:47.992Z,2.40
2023-03-19T20:00:24.517Z,2.92
2023-03-19T20:02:51.612Z,2.35
2023-03-19T20:05:33.574Z,2.35
2023-03-19T20:08:01.699Z,2.60
2023-03-19T20:10:30.472Z,2.70
2023-03-19T20:13:00.274Z,2.58
2023-03-19T20:15:36.301Z,2.28
2023-03-19T20:18:05.079Z,2.47
2023-03-19T20:20:33.186Z,2.20
2023-03-19T20:23:02.293Z,2.10
2023-03-19T20:25:30.788Z,2.45
2023-03-19T20:28:11.900Z,1.80
2023-03-19T20:30:39.697Z,2.33
2023-03-19T20:33:11.911Z,1.70
2023-03-19T20:35:39.362Z,1.83
2023-03-19T20:38:10.618Z,2.00
2023-03-19T20:40:43.920Z,1.52
2023-03-19T20:43:33.025Z,1.90
2023-03-19T20:46:08.311Z,2.30
2023-03-19T20:48:38.680Z,1.88
2023-03-19T20:51:07.620Z,2.00
2023-03-19T20:53:34.799Z,1.80
2023-03-19T20:56:04.515Z,1.80
2023-03-19T20:58:36.256Z,2.28
2023-03-19T21:01:10.318Z,2.05
2023-03-19T21:03:38.279Z,1.90
2023-03-19T21:06:14.958Z,2.20
2023-03-19T21:08:43.717Z,1.90
2023-03-19T21:11:21.499Z,2.60
2023-03-19T21:13:52.805Z,2.13
2023-03-19T21:16:27.566Z,2.00
2023-03-19T21:18:54.953Z,2.42
2023-03-19T21:21:41.233Z,2.35
2023-03-19T21:24:16.711Z,2.40
2023-03-19T21:26:44.552Z,2.30
2023-03-19T21:29:25.058Z,2.50
2023-03-19T21:34:27.700Z,2.20
2023-03-19T21:36:55.604Z,2.03
2023-03-19T21:39:22.872Z,2.17
2023-03-19T21:41:50.073Z,2.30
2023-03-19T21:44:20.444Z,2.17
2023-03-19T21:49:16.502Z,2.10
2023-03-19T21:51:44.563Z,2.33
2023-03-19T21:54:14.219Z,2.85
2023-03-19T21:56:42.140Z,2.60
2023-03-19T21:59:27.716Z,2.45
2023-03-19T22:01:54.868Z,2.33
2023-03-19T22:04:22.593Z,2.97
2023-03-19T22:06:50.236Z,2.70
2023-03-19T22:09:19.349Z,1.92
2023-03-19T22:11:51.253Z,2.60
2023-03-19T22:14:30.420Z,2.75
2023-03-19T22:16:58.019Z,2.10
2023-03-19T22:19:26.063Z,2.50
2023-03-19T22:21:53.779Z,2.40
2023-03-19T22:24:21.195Z,2.15
2023-03-19T22:26:56.626Z,2.00
2023-03-19T22:29:25.649Z,2.17
2023-03-19T22:31:53.214Z,1.92
2023-03-19T22:34:22.629Z,2.72
2023-03-19T22:36:50.192Z,2.42
2023-03-19T22:39:17.647Z,2.25
2023-03-19T22:41:46.371Z,2.20
2023-03-19T22:44:36.130Z,2.13
2023-03-19T22:47:03.605Z,2.17
2023-03-19T22:49:40.127Z,2.10
2023-03-19T22:52:10.108Z,2.17
2023-03-19T22:54:40.693Z,2.03
2023-03-19T22:57:10.203Z,1.80
2023-03-19T22:59:42.362Z,2.43
2023-03-19T23:02:12.971Z,2.10
2023-03-19T23:04:40.215Z,1.80
2023-03-19T23:07:11.483Z,2.13
2023-03-19T23:09:39.029Z,2.05
2023-03-19T23:14:34.970Z,1.92
2023-03-19T23:17:07.632Z,1.80
2023-03-19T23:20:06.878Z,2.15
2023-03-19T23:22:34.061Z,1.98
2023-03-19T23:25:01.684Z,2.08
2023-03-19T23:27:29.095Z,2.40
2023-03-19T23:29:56.294Z,2.83
2023-03-19T23:32:23.637Z,1.95
2023-03-19T23:35:00.297Z,2.15
2023-03-19T23:37:29.218Z,2.03
2023-03-19T23:39:58.001Z,2.15
2023-03-19T23:42:29.729Z,2.03
2023-03-19T23:44:58.332Z,2.22
2023-03-19T23:47:25.560Z,1.90
2023-03-19T23:49:52.885Z,2.13
2023-03-19T23:52:20.031Z,2.28
2023-03-19T23:54:47.697Z,2.30
2023-03-19T23:57:14.966Z,2.30
2023-03-19T23:59:43.276Z,1.90
